Sunburst, Montana
Current Conditions -  °F | °C
As of 10:56 AM on Sunday 23 Nov 2014 (Local Time) from KCTB Reporting Station
Clear Clear  
Wind Chill: 29°   Ceiling: Unl
Heat Index: 40°   Visibility: 10mi
Dew Point: 16°   Wind: 28mph
Humidity: 38%   Direction: 260°W
Pressure: 29.86"   Gusts: 38mph
Location:  48.88°N, 111.91°W
Report Text: KCTB 231756Z AUTO 26024G33KT 10SM CLR 04/M09 A2986 RMK AO2 PK WND 26033/1737 SLP131 T00441089 10044 21033 50004
Loading
Personal Weather Stations






























Interactive Weather Map New forecast layout! Learn more

10-Day Weather Forecast

Advertisements
Track Severe Weather on mobile